Daytona Beach International, FL

2:23 AM EDT on September 20, 2014 (GMT -0400)
New Smyrna Beach Municipal | Change Station
CLOSE
Current Station
Airport
Location: New Smyrna Beach,
Elevation: 10 ft
Nearby Weather Stations

Elev 10 ft 29.06 °N, 80.95 °W | Updated 6 hours ago

Rain
Rain
73 °F
Feels Like 73 °F
N
4
Wind Variable Wind from NNE
Gusts 4 mph

Today
High -- | Low -- °F
--% Chance of Precip.
Yesterday
High -- | Low -- °F
Precip. -- in
7:11 AM 7:23 PM
Waning Crescent, 14% visible
Pressure 29.97 in
Visibility 10.0 miles
Clouds Scattered Clouds 6000 ft
Dew Point 68 °F
Humidity 81%
Rainfall 0.00 in
Snow Depth Not available.
UV 0 out of 12
Pollen 4.30 out of 12
Air Quality Not available.
Flu Activity Not available.
METAR KEVB 192347Z 07004KT 10SM SCT060 27/24 A2997

More Conditions Fewer Conditions

Pressure 29.97 in
Visibility 10.0 miles
Clouds Scattered Clouds 6000 ft
Dew Point 68 °F
Humidity 81%
Rainfall 0.00 in
Snow Depth Not available.
UV 0 out of 12
Pollen 4.30 out of 12
Air Quality Not available.
Flu Activity Not available.
METAR KEVB 192347Z 07004KT 10SM SCT060 27/24 A2997

More Conditions Fewer Conditions

10-Day Weather Forecast

Almanac

Astronomy

Sep. 20, 2014 Rise Set
Actual Time 7:11 AM EDT 7:23 PM EDT
Civil Twilight 6:47 AM EDT 7:46 PM EDT
Nautical Twilight 6:20 AM EDT 8:14 PM EDT
Astronomical Twilight 5:52 AM EDT 8:42 PM EDT
Moon 4:02 AM EDT 5:15 PM EDT
Length of Visible Light 12h 59m
Length of Day
12h 11m
Tomorrow will be 1m 45s shorter.
Waning Crescent, 14% of the Moon is Illuminated
Today
Waning Crescent
Sep 24
New
Oct 1
First Quarter
Oct 8
Full
Oct 15
Last Quarter

Today's Extremes

State Highs State Lows

Community

WunderPhotos

Upload Photos

1,754,779 photos uploaded!

WunderBlogs® & News

Nearby

Snow Depth

Station Depth Elevation
No new snow has been reported.

Earthquake Activity

City Distance Mag. Time & Date
No recent earthquake activity has been reported nearby.
Minimum magnitude displayed is 2.5.

Coastal Water Temperatures

Place Temperature
Trident Pier, FL 84.0 °F
Mayport (Bar Pilots Dock), FL 84.0 °F
Fernandina Beach, FL 82.9 °F

Nearby Weather Stations